createdAt,value
2022-12-25T00:00:34.820Z,10.90
2022-12-25T00:05:59.119Z,8.60
2022-12-25T00:11:21.192Z,11.50
2022-12-25T00:16:26.638Z,11.30
2022-12-25T00:21:50.102Z,10.30
2022-12-25T00:26:54.011Z,9.70
2022-12-25T00:31:57.411Z,12.30
2022-12-25T00:37:01.575Z,12.00
2022-12-25T00:42:20.348Z,11.00
2022-12-25T00:47:24.529Z,11.10
2022-12-25T00:52:29.131Z,12.00
2022-12-25T00:57:34.109Z,10.80
2022-12-25T01:02:37.721Z,11.70
2022-12-25T01:07:41.673Z,11.70
2022-12-25T01:12:44.980Z,12.80
2022-12-25T01:17:48.232Z,12.00
2022-12-25T01:22:51.813Z,10.60
2022-12-25T01:27:55.637Z,10.70
2022-12-25T01:32:59.190Z,11.40
2022-12-25T01:38:02.708Z,11.00
2022-12-25T01:43:33.285Z,11.70
2022-12-25T01:48:39.285Z,10.40
2022-12-25T01:53:42.526Z,10.00
2022-12-25T01:58:46.161Z,9.00
2022-12-25T02:03:49.785Z,8.90
2022-12-25T02:08:53.627Z,9.10
2022-12-25T02:13:57.703Z,9.10
2022-12-25T02:19:18.806Z,8.80
2022-12-25T02:24:22.346Z,8.20
2022-12-25T02:29:54.354Z,10.40
2022-12-25T02:35:06.611Z,9.30
2022-12-25T02:40:27.635Z,7.20
2022-12-25T02:46:10.394Z,10.10
2022-12-25T02:51:36.152Z,9.90
2022-12-25T02:57:01.130Z,9.50
2022-12-25T03:02:25.859Z,7.50
2022-12-25T03:07:31.188Z,8.20
2022-12-25T03:12:59.632Z,6.50
2022-12-25T03:18:07.279Z,8.80
2022-12-25T03:23:32.937Z,9.20
2022-12-25T03:28:36.336Z,8.20
2022-12-25T03:34:29.206Z,8.20
2022-12-25T03:40:33.104Z,8.30
2022-12-25T03:46:07.886Z,8.50
2022-12-25T03:51:33.001Z,8.90
2022-12-25T03:56:57.373Z,9.00
2022-12-25T04:02:19.721Z,8.40
2022-12-25T04:07:42.060Z,8.10
2022-12-25T04:13:03.967Z,9.40
2022-12-25T04:18:25.976Z,8.90
2022-12-25T04:23:47.941Z,8.20
2022-12-25T04:29:09.895Z,9.20
2022-12-25T04:34:31.896Z,17.00
2022-12-25T04:39:35.472Z,12.20
2022-12-25T04:44:39.151Z,9.80
2022-12-25T04:49:42.413Z,10.10
2022-12-25T04:54:45.926Z,11.30
2022-12-25T04:59:49.335Z,11.80
2022-12-25T05:04:53.007Z,12.00
2022-12-25T05:09:56.284Z,11.10
2022-12-25T05:14:59.784Z,11.90
2022-12-25T05:20:05.327Z,11.60
2022-12-25T05:25:08.833Z,11.90
2022-12-25T05:30:12.765Z,13.40
2022-12-25T05:35:16.179Z,12.90
2022-12-25T05:40:19.906Z,13.30
2022-12-25T05:45:23.196Z,12.60
2022-12-25T05:50:26.653Z,12.30
2022-12-25T05:55:46.010Z,13.10
2022-12-25T06:00:49.225Z,12.90
2022-12-25T06:05:53.587Z,12.50
2022-12-25T06:10:56.901Z,12.20
2022-12-25T06:16:04.344Z,11.10
2022-12-25T06:21:12.885Z,13.30
2022-12-25T06:26:18.750Z,12.80
2022-12-25T06:31:23.744Z,12.20
2022-12-25T06:36:29.631Z,11.70
2022-12-25T06:41:33.412Z,13.30
2022-12-25T06:46:36.948Z,12.20
2022-12-25T06:51:40.594Z,13.50
2022-12-25T06:56:43.807Z,14.80
2022-12-25T07:01:55.637Z,12.50
2022-12-25T07:07:06.110Z,12.20
2022-12-25T07:12:21.194Z,11.80
2022-12-25T07:17:24.738Z,11.40
2022-12-25T07:22:30.349Z,12.00
2022-12-25T07:27:33.880Z,10.60
2022-12-25T07:32:37.300Z,13.40
2022-12-25T07:37:40.602Z,14.30
2022-12-25T07:42:43.899Z,11.40
2022-12-25T07:47:47.411Z,13.20
2022-12-25T07:52:50.813Z,12.60
2022-12-25T07:57:54.177Z,13.10
2022-12-25T08:02:57.829Z,14.80
2022-12-25T08:08:01.296Z,13.00
2022-12-25T08:13:09.044Z,13.10
2022-12-25T08:18:15.965Z,12.40
2022-12-25T08:23:19.441Z,12.00
2022-12-25T08:28:23.007Z,13.00
2022-12-25T08:33:26.369Z,12.60
2022-12-25T08:38:29.721Z,12.50
2022-12-25T08:43:33.520Z,12.30
2022-12-25T08:48:37.041Z,12.90
2022-12-25T08:53:41.602Z,12.50
2022-12-25T08:58:45.518Z,13.00
2022-12-25T09:03:49.193Z,13.90
2022-12-25T09:08:52.684Z,13.80
2022-12-25T09:13:56.202Z,14.40
2022-12-25T09:18:59.734Z,13.30
2022-12-25T09:24:06.907Z,15.50
2022-12-25T09:29:10.488Z,13.90
2022-12-25T09:34:17.230Z,16.50
2022-12-25T09:39:23.513Z,16.50
2022-12-25T09:44:35.570Z,15.00
2022-12-25T09:49:53.730Z,16.40
2022-12-25T09:55:03.847Z,14.70
2022-12-25T10:00:19.997Z,17.80
2022-12-25T10:05:45.442Z,18.70
2022-12-25T10:11:34.697Z,15.80
2022-12-25T10:16:48.404Z,15.80
2022-12-25T10:21:57.182Z,14.70
2022-12-25T10:27:04.333Z,13.50
2022-12-25T10:32:10.490Z,14.70
2022-12-25T10:37:20.441Z,15.40
2022-12-25T10:42:46.629Z,15.40
2022-12-25T10:47:59.509Z,12.60
2022-12-25T10:53:06.432Z,13.40
2022-12-25T10:58:21.004Z,14.00
2022-12-25T11:03:29.228Z,12.50
2022-12-25T11:08:35.056Z,20.80
2022-12-25T11:13:49.704Z,22.40
2022-12-25T11:18:54.606Z,16.10
2022-12-25T11:24:03.602Z,14.70
2022-12-25T11:29:24.005Z,13.20
2022-12-25T11:34:48.736Z,14.80
2022-12-25T11:39:52.566Z,14.90
2022-12-25T11:45:19.090Z,11.50
2022-12-25T11:50:28.232Z,10.80
2022-12-25T11:55:41.454Z,10.90
2022-12-25T12:00:47.858Z,12.90
2022-12-25T12:06:28.848Z,11.20
2022-12-25T12:11:46.927Z,10.90
2022-12-25T12:16:50.498Z,11.60
2022-12-25T12:21:57.360Z,10.90
2022-12-25T12:27:33.381Z,13.10
2022-12-25T12:32:42.001Z,12.40
2022-12-25T12:37:47.553Z,15.10
2022-12-25T12:42:52.504Z,23.00
2022-12-25T12:47:56.272Z,16.10
2022-12-25T12:53:00.931Z,16.30
2022-12-25T12:58:06.467Z,27.30
2022-12-25T13:03:28.079Z,17.00
2022-12-25T13:08:46.845Z,13.50
2022-12-25T13:13:52.963Z,14.90
2022-12-25T13:18:57.049Z,14.50
2022-12-25T13:24:09.114Z,14.30
2022-12-25T13:29:32.196Z,15.10
2022-12-25T13:34:43.674Z,17.20
2022-12-25T13:39:52.134Z,17.60
2022-12-25T13:44:59.024Z,17.90
2022-12-25T13:50:30.330Z,19.90
2022-12-25T13:55:34.332Z,20.50
2022-12-25T14:00:49.909Z,21.90
2022-12-25T14:06:27.111Z,20.30
2022-12-25T14:11:32.444Z,20.90
2022-12-25T14:16:36.973Z,19.70
2022-12-25T14:21:49.448Z,21.20
2022-12-25T14:27:08.609Z,26.20
2022-12-25T14:32:17.449Z,24.70
2022-12-25T14:37:24.559Z,24.50
2022-12-25T14:42:30.792Z,24.80
2022-12-25T14:47:50.335Z,22.80
2022-12-25T14:52:54.298Z,23.10
2022-12-25T14:58:08.469Z,24.40
2022-12-25T15:03:25.139Z,21.90
2022-12-25T15:08:29.866Z,21.90
2022-12-25T15:13:34.401Z,24.40
2022-12-25T15:18:43.870Z,31.50
2022-12-25T15:23:47.696Z,30.10
2022-12-25T15:28:51.176Z,31.50
2022-12-25T15:33:56.771Z,24.80
2022-12-25T15:39:00.786Z,20.90
2022-12-25T15:44:06.308Z,22.90
2022-12-25T15:49:11.029Z,24.30
2022-12-25T15:54:14.838Z,24.00
2022-12-25T15:59:19.887Z,18.50
2022-12-25T16:04:24.473Z,22.50
2022-12-25T16:09:28.347Z,20.90
2022-12-25T16:14:32.139Z,19.50
2022-12-25T16:19:35.906Z,19.80
2022-12-25T16:24:39.466Z,18.50
2022-12-25T16:29:42.725Z,20.30
2022-12-25T16:34:48.606Z,20.90
2022-12-25T16:39:52.013Z,19.80
2022-12-25T16:44:56.930Z,19.30
2022-12-25T16:50:01.030Z,20.00
2022-12-25T16:55:05.448Z,16.60
2022-12-25T17:00:09.587Z,20.60
2022-12-25T17:05:13.253Z,19.80
2022-12-25T17:10:17.432Z,20.80
2022-12-25T17:15:20.848Z,17.60
2022-12-25T17:20:24.379Z,17.60
2022-12-25T17:25:28.063Z,21.70
2022-12-25T17:30:32.192Z,17.20
2022-12-25T17:35:37.443Z,15.60
2022-12-25T17:40:41.251Z,16.40
2022-12-25T17:45:45.099Z,14.70
2022-12-25T17:50:49.031Z,15.90
2022-12-25T17:55:59.465Z,15.00
2022-12-25T18:01:12.651Z,15.30
2022-12-25T18:06:19.392Z,15.60
2022-12-25T18:11:27.711Z,13.00
2022-12-25T18:16:33.793Z,14.70
2022-12-25T18:21:37.634Z,14.50
2022-12-25T18:26:42.921Z,15.80
2022-12-25T18:31:46.569Z,17.70
2022-12-25T18:36:49.879Z,15.30
2022-12-25T18:42:12.126Z,17.80
2022-12-25T18:47:15.938Z,15.40
2022-12-25T18:52:48.032Z,15.20
2022-12-25T18:57:42.999Z,16.20
2022-12-25T19:02:46.488Z,15.30
2022-12-25T19:07:50.429Z,14.90
2022-12-25T19:12:53.635Z,15.00
2022-12-25T19:17:57.157Z,15.90
2022-12-25T19:23:00.516Z,14.70
2022-12-25T19:28:04.176Z,13.40
2022-12-25T19:33:11.136Z,14.00
2022-12-25T19:38:20.416Z,14.60
2022-12-25T19:43:23.747Z,13.50
2022-12-25T19:48:28.077Z,13.60
2022-12-25T19:53:31.955Z,11.00
2022-12-25T19:58:35.708Z,10.70
2022-12-25T20:03:45.752Z,14.00
2022-12-25T20:08:55.022Z,14.00
2022-12-25T20:13:59.576Z,11.80
2022-12-25T20:19:04.094Z,13.10
2022-12-25T20:24:10.380Z,19.90
2022-12-25T20:29:14.743Z,15.80
2022-12-25T20:34:18.717Z,13.30
2022-12-25T20:39:22.111Z,42.60
2022-12-25T20:44:25.284Z,15.10
2022-12-25T20:49:32.810Z,11.50
2022-12-25T20:54:37.162Z,12.80
2022-12-25T20:59:43.466Z,15.30
2022-12-25T21:04:52.390Z,22.10
2022-12-25T21:09:57.662Z,17.30
2022-12-25T21:15:01.488Z,17.50
2022-12-25T21:20:05.333Z,17.20
2022-12-25T21:25:08.773Z,15.00
2022-12-25T21:30:14.892Z,12.20
2022-12-25T21:35:18.891Z,12.80
2022-12-25T21:40:22.255Z,12.70
2022-12-25T21:45:25.430Z,12.40
2022-12-25T21:50:46.947Z,14.50
2022-12-25T21:56:02.597Z,12.90
2022-12-25T22:01:06.361Z,11.60
2022-12-25T22:06:29.652Z,10.40
2022-12-25T22:11:52.081Z,11.40
2022-12-25T22:17:14.211Z,13.50
2022-12-25T22:22:21.580Z,11.10
2022-12-25T22:27:25.993Z,11.80
2022-12-25T22:32:29.691Z,11.10
2022-12-25T22:37:33.507Z,12.50
2022-12-25T22:42:37.848Z,9.20
2022-12-25T22:47:41.236Z,12.00
2022-12-25T22:52:45.955Z,12.10
2022-12-25T22:57:49.375Z,12.60
2022-12-25T23:02:53.054Z,9.90
2022-12-25T23:07:57.098Z,10.50
2022-12-25T23:13:19.340Z,9.80
2022-12-25T23:18:41.766Z,9.60
2022-12-25T23:24:03.844Z,9.40
2022-12-25T23:29:25.801Z,11.10
2022-12-25T23:34:29.454Z,9.80
2022-12-25T23:39:32.882Z,11.10
2022-12-25T23:44:36.315Z,8.20
2022-12-25T23:49:39.970Z,8.10
2022-12-25T23:54:55.325Z,9.00
